This is the latest recevied weather packets stored in our database for station/object LRAR. If no packets are shown the sender has not sent any weather packets the latest 10 day(s).
| Time | Temp. | Humidity | Pressure | Rain* | Wind** | Luminosity | Snow |
|---|---|---|---|---|---|---|---|
| 1777777418 | 3.89° C | 81% | 1021 hPa | - | - | - | - |
| 1777776533 | 6.11° C | 76% | 1021 hPa | - | - | - | - |
| 1777775619 | 6.11° C | 76% | 1021 hPa | - | - | - | - |
| 1777774718 | 6.11° C | 71% | 1021 hPa | - | - | - | - |
| 1777773818 | 6.11° C | 71% | 1021 hPa | - | - | - | - |
| 1777772918 | 6.11° C | 71% | 1021 hPa | - | - | - | - |
| 1777772018 | 6.11° C | 71% | 1021 hPa | - | - | - | - |
| 1777771119 | 6.11° C | 71% | 1021 hPa | - | - | - | - |
| 1777770219 | 6.11° C | 71% | 1021 hPa | - | - | - | - |
| 1777769318 | 7.22° C | 66% | 1020 hPa | - | - | - | - |
| 1777768418 | 7.22° C | 66% | 1020 hPa | - | - | - | - |
| 1777767518 | 7.22° C | 71% | 1020 hPa | - | - | - | - |
| 1777766618 | 7.22° C | 71% | 1020 hPa | - | - | - | - |
| 1777765718 | 7.22° C | 66% | 1020 hPa | - | - | - | - |
| 1777764818 | 7.22° C | 66% | 1020 hPa | - | - | - | - |
| 1777763919 | 6.11° C | 76% | 1020 hPa | - | - | - | - |
| 1777763019 | 6.11° C | 76% | 1020 hPa | - | - | - | - |
| 1777762118 | 8.89° C | 58% | 1020 hPa | - | - | - | - |
| 1777761218 | 8.89° C | 58% | 1020 hPa | - | - | - | - |
| 1777760318 | 7.22° C | 71% | 1020 hPa | - | - | - | - |
| 1777759419 | 7.22° C | 71% | 1020 hPa | - | - | - | - |
| 1777758518 | 8.89° C | 66% | 1020 hPa | - | - | - | - |
| 1777757619 | 8.89° C | 66% | 1020 hPa | - | - | - | - |
| 1777756718 | 10° C | 58% | 1020 hPa | - | - | - | - |
| 1777755818 | 10° C | 58% | 1020 hPa | - | - | - | - |
* Rain since midnight (hover to see other rain measurements)
** Current wind speed in m/s (hover to see current wind gust speed)